»·PEaware :: N364KQ KFUL-KBLH

N364KQ :: KFUL-KBLH

FLIGHT INFORMATION

Flight Status: Arrived
Operator: Privately registered:
United States
More flights under this callsign
Pilot: Brian K. (18535)
Aircraft: CESSNA 172 SKYHAWK
(C172)
More flights by this aircraft type
Origin: KFUL Fullerton Mun
United States
Destination: KBLH Blythe
United States
More flights between these airports :: More routes between these airports
Route:
File this flight plan on PilotEdge
Remarks:
Altitude:
(Current/Filed)
7,500ft
Speed:
(Current/Filed)
0kts
Departed: 11-Apr-18 04:50 PM
Arrived: 11-Apr-18 06:26 PM
Distance/Time
Traveled:
164nm/1:36
Distance/Time
To Go:
Arrived

Flight Plot

Page will automatically refresh every two minutes.

Flight plan parsing failed; only flown route is shown


Map Options




Map Legend


Flown Route
Filed Route
Departure Airport
Arrival Airport
Navaid (VOR, NDB)
Fix

Horizontal Profiles

Position Reports

Time Latitude Longitude Heading Altitude Ground
Speed
11-Apr-18 16:25 33.871161 -117.978185 258 95ft 0kts
11-Apr-18 16:26 33.871161 -117.978185 258 95ft 0kts
11-Apr-18 16:27 33.871161 -117.978185 258 95ft 0kts
11-Apr-18 16:28 33.871161 -117.978185 258 95ft 0kts
11-Apr-18 16:29 33.871161 -117.978185 258 95ft 0kts
11-Apr-18 16:30 33.871161 -117.978185 258 95ft 0kts
11-Apr-18 16:31 33.871161 -117.978185 258 95ft 0kts
11-Apr-18 16:32 33.871161 -117.978185 258 95ft 0kts
11-Apr-18 16:33 33.871161 -117.978185 258 95ft 0kts
11-Apr-18 16:34 33.871161 -117.978185 258 95ft 0kts
11-Apr-18 16:35 33.871161 -117.978185 258 95ft 0kts
11-Apr-18 16:36 33.871161 -117.978185 258 95ft 0kts
11-Apr-18 16:37 33.871161 -117.978185 258 95ft 0kts
11-Apr-18 16:38 33.871161 -117.978185 258 95ft 0kts
11-Apr-18 16:39 33.871161 -117.978185 258 95ft 0kts
11-Apr-18 16:40 33.871161 -117.978185 258 95ft 0kts
11-Apr-18 16:41 33.871161 -117.978185 258 95ft 0kts
11-Apr-18 16:42 33.871161 -117.978185 258 95ft 0kts
11-Apr-18 16:43 33.871979 -117.977936 79 95ft 11kts
11-Apr-18 16:44 33.872138 -117.976526 75 95ft 0kts
11-Apr-18 16:45 33.872545 -117.974976 73 95ft 7kts
11-Apr-18 16:46 33.872581 -117.974905 47 95ft 0kts
11-Apr-18 16:47 33.872581 -117.974905 47 95ft 0kts
11-Apr-18 16:48 33.872861 -117.974888 306 95ft 6kts
11-Apr-18 16:49 33.870464 -117.989364 254 281ft 83kts
11-Apr-18 16:50 33.866464 -118.012478 241 1238ft 61kts
11-Apr-18 16:51 33.861551 -117.991812 82 1840ft 103kts
11-Apr-18 16:52 33.859235 -117.965960 103 2444ft 95kts
11-Apr-18 16:53 33.856784 -117.938333 93 3139ft 86kts
11-Apr-18 16:54 33.857501 -117.910444 87 3766ft 88kts
11-Apr-18 16:55 33.862093 -117.883231 85 4388ft 87kts
11-Apr-18 16:56 33.864220 -117.854672 89 5009ft 87kts
11-Apr-18 16:57 33.866534 -117.825372 88 5602ft 88kts
11-Apr-18 16:58 33.868561 -117.795804 92 6153ft 91kts
11-Apr-18 16:59 33.871866 -117.763017 72 6595ft 105kts
11-Apr-18 17:00 33.879970 -117.729656 77 7091ft 105kts
11-Apr-18 17:01 33.888427 -117.694459 71 7417ft 111kts
11-Apr-18 17:02 33.897855 -117.657307 81 7491ft 120kts
11-Apr-18 17:03 33.903929 -117.618032 80 7564ft 124kts
11-Apr-18 17:04 33.911367 -117.578389 76 7503ft 123kts
11-Apr-18 17:05 33.916145 -117.538696 81 7386ft 121kts
11-Apr-18 17:06 33.928320 -117.502795 58 7314ft 116kts
11-Apr-18 17:07 33.944037 -117.469664 52 7290ft 114kts
11-Apr-18 17:08 33.954284 -117.434620 89 7330ft 112kts
11-Apr-18 17:09 33.954877 -117.395905 91 7363ft 116kts
11-Apr-18 17:10 33.955063 -117.358230 86 7471ft 112kts
11-Apr-18 17:11 33.955941 -117.320178 91 7453ft 117kts
11-Apr-18 17:12 33.955771 -117.281524 94 7486ft 116kts
11-Apr-18 17:13 33.954962 -117.242996 89 7511ft 116kts
11-Apr-18 17:14 33.955631 -117.205586 89 7547ft 114kts
11-Apr-18 17:15 33.956467 -117.165920 92 7509ft 119kts
11-Apr-18 17:16 33.957088 -117.126083 94 7503ft 120kts
11-Apr-18 17:17 33.955784 -117.086297 99 7497ft 120kts
11-Apr-18 17:18 33.952967 -117.046617 99 7502ft 119kts
11-Apr-18 17:19 33.953869 -117.006487 88 7502ft 121kts
11-Apr-18 17:20 33.956156 -116.966465 90 7512ft 118kts
11-Apr-18 17:21 33.955532 -116.927755 95 7550ft 114kts
11-Apr-18 17:22 33.953678 -116.889087 100 7604ft 110kts
11-Apr-18 17:23 33.950524 -116.851058 106 7565ft 116kts
11-Apr-18 17:24 33.948150 -116.813081 96 7619ft 116kts
11-Apr-18 17:25 33.950579 -116.776460 91 7780ft 108kts
11-Apr-18 17:26 33.951699 -116.741873 102 7894ft 99kts
11-Apr-18 17:27 33.946664 -116.710175 103 7828ft 95kts
11-Apr-18 17:28 33.938167 -116.680099 114 7639ft 95kts
11-Apr-18 17:29 33.926708 -116.651836 112 7478ft 94kts
11-Apr-18 17:30 33.920629 -116.626856 108 7387ft 92kts
11-Apr-18 17:31 33.913593 -116.597066 106 7317ft 92kts
11-Apr-18 17:32 33.906292 -116.567282 108 7268ft 92kts
11-Apr-18 17:33 33.899055 -116.537632 110 7283ft 93kts
11-Apr-18 17:34 33.890319 -116.503129 105 7318ft 93kts
11-Apr-18 17:35 33.883206 -116.473333 113 7368ft 92kts
11-Apr-18 17:36 33.873320 -116.445221 105 7461ft 92kts
11-Apr-18 17:37 33.869163 -116.414514 98 7519ft 95kts
11-Apr-18 17:38 33.869401 -116.388058 85 7573ft 97kts
11-Apr-18 17:39 33.868337 -116.356374 98 7641ft 94kts
11-Apr-18 17:40 33.865470 -116.326413 98 7719ft 93kts
11-Apr-18 17:41 33.861043 -116.295647 101 7781ft 94kts
11-Apr-18 17:42 33.857032 -116.264122 102 7791ft 98kts
11-Apr-18 17:43 33.851734 -116.231484 102 7718ft 97kts
11-Apr-18 17:44 33.845709 -116.199500 102 7597ft 98kts
11-Apr-18 17:45 33.840633 -116.166012 100 7502ft 99kts
11-Apr-18 17:46 33.833599 -116.133392 102 7505ft 101kts
11-Apr-18 17:47 33.826961 -116.099849 100 7579ft 104kts
11-Apr-18 17:48 33.820347 -116.066149 102 7670ft 105kts
11-Apr-18 17:49 33.813365 -116.032388 101 7763ft 105kts
11-Apr-18 17:50 33.806210 -115.998254 101 7857ft 105kts
11-Apr-18 17:51 33.799100 -115.964685 93 7954ft 104kts
11-Apr-18 17:52 33.787486 -115.928607 111 7876ft 128kts
11-Apr-18 17:53 33.777409 -115.887870 94 7798ft 132kts
11-Apr-18 17:54 33.772682 -115.843565 107 7487ft 133kts
11-Apr-18 17:55 33.767948 -115.799831 106 7335ft 134kts
11-Apr-18 17:56 33.759116 -115.757061 92 7316ft 135kts
11-Apr-18 17:57 33.743557 -115.718308 146 7301ft 126kts
11-Apr-18 17:58 33.716183 -115.694588 160 7287ft 120kts
11-Apr-18 17:59 33.698632 -115.658575 103 7255ft 134kts
11-Apr-18 18:00 33.691688 -115.615738 82 7280ft 129kts
11-Apr-18 18:01 33.692655 -115.572482 86 7227ft 132kts
11-Apr-18 18:02 33.689897 -115.529309 93 7238ft 129kts
11-Apr-18 18:03 33.681752 -115.486583 116 7230ft 134kts
11-Apr-18 18:04 33.674402 -115.444014 80 7281ft 131kts
11-Apr-18 18:05 33.675346 -115.400655 75 7355ft 128kts
11-Apr-18 18:06 33.678197 -115.358506 80 7445ft 126kts
11-Apr-18 18:07 33.677223 -115.316538 89 7466ft 128kts
11-Apr-18 18:08 33.673901 -115.272962 90 7471ft 131kts
11-Apr-18 18:09 33.670254 -115.229783 92 7289ft 134kts
11-Apr-18 18:10 33.663758 -115.186643 96 6632ft 135kts
11-Apr-18 18:11 33.657897 -115.143911 95 6018ft 132kts
11-Apr-18 18:12 33.655262 -115.101503 100 5425ft 131kts
11-Apr-18 18:13 33.647573 -115.059121 96 4835ft 128kts
11-Apr-18 18:14 33.638297 -115.017513 107 4318ft 132kts
11-Apr-18 18:15 33.631305 -114.978426 99 4025ft 115kts
11-Apr-18 18:16 33.627964 -114.940968 104 3535ft 113kts
11-Apr-18 18:17 33.623108 -114.903830 104 3047ft 112kts
11-Apr-18 18:18 33.617468 -114.867210 111 2565ft 111kts
11-Apr-18 18:19 33.609340 -114.831736 107 2093ft 111kts
11-Apr-18 18:20 33.604706 -114.795963 105 1641ft 110kts
11-Apr-18 18:21 33.603886 -114.758954 90 1209ft 111kts
11-Apr-18 18:22 33.604639 -114.722450 93 1038ft 108kts
11-Apr-18 18:23 33.606711 -114.688650 77 1123ft 96kts
11-Apr-18 18:24 33.618197 -114.687561 232 688ft 58kts
11-Apr-18 18:25 33.616297 -114.700979 266 503ft 36kts
11-Apr-18 18:26 33.616401 -114.711350 266 397ft 26kts
11-Apr-18 18:27 33.615269 -114.715088 176 397ft 11kts
11-Apr-18 18:28 33.614522 -114.712078 136 397ft 8kts
11-Apr-18 18:29 33.613964 -114.712434 270 397ft 4kts
11-Apr-18 18:30 33.614113 -114.712726 355 397ft 0kts
11-Apr-18 18:31 33.614113 -114.712726 355 397ft 0kts
11-Apr-18 18:32 33.614113 -114.712726 355 397ft 0kts

Navigation Log

Ident Type
Flight plan parsing failed, navigation log unavailable